Time;durP1;ratioP1;P1;durP2;ratioP2;P2;SDS_P1;SDS_P2;PMS_P1;PMS_P2;Temp;Humidity;BMP_temperature;BMP_pressure;BME280_temperature;BME280_humidity;BME280_pressure;Samples;Min_cycle;Max_cycle;Signal;HPM_P1;HPM_P2
2023/01/06 00:00:39;;;;;;;14.15;5.65;;;;;;;11.28;84.89;101753.09;5027553;28;20076;-89
2023/01/06 00:03:07;;;;;;;9.07;4.90;;;;;;;11.24;85.12;101748.84;5016909;28;20516;-89
2023/01/06 00:05:32;;;;;;;10.02;4.65;;;;;;;11.28;84.79;101754.91;5028574;28;20022;-89
2023/01/06 00:07:58;;;;;;;8.85;4.63;;;;;;;11.30;84.84;101747.78;5027938;28;20030;-89
2023/01/06 00:10:23;;;;;;;11.88;4.78;;;;;;;11.28;84.74;101747.81;5010518;28;20029;-89
2023/01/06 00:12:52;;;;;;;11.93;4.60;;;;;;;11.32;84.39;101745.97;5030229;28;20458;-89
2023/01/06 00:15:18;;;;;;;8.15;4.68;;;;;;;11.22;84.60;101730.34;5024284;28;20057;-89
2023/01/06 00:17:44;;;;;;;10.82;4.63;;;;;;;11.35;84.14;101740.59;5028172;28;20092;-89
2023/01/06 00:20:11;;;;;;;7.25;4.93;;;;;;;11.27;84.23;101727.56;5025612;28;20030;-89
2023/01/06 00:22:41;;;;;;;11.35;4.90;;;;;;;11.29;83.93;101733.69;5006777;28;20493;-88
2023/01/06 00:25:09;;;;;;;9.65;4.47;;;;;;;11.34;83.95;101728.25;5007994;28;20033;-89
2023/01/06 00:27:34;;;;;;;6.68;3.88;;;;;;;11.29;83.88;101722.25;5005201;28;20029;-89
2023/01/06 00:29:59;;;;;;;9.45;4.80;;;;;;;11.34;83.81;101733.56;5024858;28;20029;-89
2023/01/06 00:32:25;;;;;;;8.43;4.47;;;;;;;11.41;83.69;101732.44;5028487;28;21421;-89
2023/01/06 00:34:50;;;;;;;5.35;3.70;;;;;;;11.36;83.24;101729.94;5010602;28;20390;-88
2023/01/06 00:37:15;;;;;;;7.57;3.65;;;;;;;11.46;83.21;101731.41;5029079;28;20026;-89
2023/01/06 00:39:40;;;;;;;7.80;4.00;;;;;;;11.49;82.65;101733.09;5005795;28;20404;-89
2023/01/06 00:42:06;;;;;;;6.72;3.42;;;;;;;11.37;82.91;101725.50;5030433;28;20045;-89
2023/01/06 00:44:37;;;;;;;8.02;3.58;;;;;;;11.40;83.34;101726.28;5004793;28;20030;-89
2023/01/06 00:47:05;;;;;;;5.90;3.42;;;;;;;11.36;82.95;101715.84;5022395;28;20502;-89
2023/01/06 00:49:30;;;;;;;6.03;3.90;;;;;;;11.37;82.76;101725.50;5027324;28;20032;-89
2023/01/06 00:51:56;;;;;;;5.85;3.08;;;;;;;11.39;83.12;101729.00;5028586;28;20112;-89
2023/01/06 00:54:21;;;;;;;5.97;3.20;;;;;;;11.39;83.12;101721.06;5009830;28;20029;-89
2023/01/06 00:56:49;;;;;;;5.88;3.13;;;;;;;11.33;82.80;101716.81;5024518;28;20032;-89
2023/01/06 00:59:17;;;;;;;6.88;3.90;;;;;;;11.34;83.14;101722.97;5022813;28;20029;-88
2023/01/06 01:01:44;;;;;;;4.80;3.15;;;;;;;11.35;82.08;101724.69;5024085;28;20025;-89
2023/01/06 01:04:10;;;;;;;6.90;3.17;;;;;;;11.33;82.30;101722.09;5028740;28;20033;-88
2023/01/06 01:06:36;;;;;;;6.20;3.20;;;;;;;11.33;82.44;101715.91;5009928;28;20029;-89
2023/01/06 01:09:04;;;;;;;5.03;2.55;;;;;;;11.41;82.35;101721.88;5005508;28;20028;-89
2023/01/06 01:14:15;;;;;;;6.88;2.72;;;;;;;11.32;82.02;101719.47;5027717;28;20072;-89
2023/01/06 01:16:40;;;;;;;5.03;2.80;;;;;;;11.34;81.86;101704.44;5030231;28;20029;-89
2023/01/06 01:19:07;;;;;;;7.50;2.92;;;;;;;11.43;81.70;101715.63;5009440;28;20120;-88
2023/01/06 01:21:32;;;;;;;5.47;2.58;;;;;;;11.35;82.00;101714.13;5023130;28;20467;-89
2023/01/06 01:23:58;;;;;;;4.70;2.65;;;;;;;11.34;81.60;101704.44;5021247;28;20037;-88
2023/01/06 01:26:23;;;;;;;6.78;2.45;;;;;;;11.34;81.34;101713.25;5027315;28;20021;-89
2023/01/06 01:28:48;;;;;;;6.30;2.20;;;;;;;11.46;81.11;101725.25;5003519;28;20437;-88
2023/01/06 01:31:14;;;;;;;7.00;2.53;;;;;;;11.34;81.02;101702.66;5023618;28;20029;-88
2023/01/06 01:33:40;;;;;;;4.50;2.30;;;;;;;11.35;81.24;101709.69;5025792;28;20111;-89
2023/01/06 01:36:07;;;;;;;7.20;2.47;;;;;;;11.41;81.04;101704.19;5026491;28;20477;-88
2023/01/06 01:38:33;;;;;;;6.20;2.10;;;;;;;11.34;80.89;101697.34;5024692;28;20056;-88
2023/01/06 01:40:58;;;;;;;4.78;2.25;;;;;;;11.38;81.09;101682.25;5026176;28;20025;-88
2023/01/06 01:43:24;;;;;;;3.22;1.95;;;;;;;11.41;80.84;101692.75;5026567;28;20041;-88
2023/01/06 01:45:52;;;;;;;6.97;2.03;;;;;;;11.29;80.83;101679.88;5011864;28;20057;-87
2023/01/06 01:48:20;;;;;;;6.72;2.05;;;;;;;11.30;80.50;101690.41;5023897;28;20580;-88
2023/01/06 01:50:50;;;;;;;4.55;2.15;;;;;;;11.33;80.33;101673.56;5006879;28;20595;-88
2023/01/06 01:53:21;;;;;;;6.50;1.70;;;;;;;11.30;80.10;101671.03;4999082;28;20119;-88
2023/01/06 01:55:49;;;;;;;3.45;1.50;;;;;;;11.40;79.09;101670.69;5009169;28;20021;-88
2023/01/06 01:58:28;;;;;;;4.43;1.50;;;;;;;11.37;79.56;101664.63;5010019;28;20018;-88
2023/01/06 02:00:53;;;;;;;3.42;1.60;;;;;;;11.40;79.75;101660.09;5027393;28;20636;-88
2023/01/06 02:03:20;;;;;;;3.70;1.52;;;;;;;11.58;79.05;101669.28;5005161;28;20124;-89
2023/01/06 02:05:50;;;;;;;4.30;1.20;;;;;;;11.42;79.29;101660.03;5028225;28;20030;-88
2023/01/06 02:08:37;;;;;;;3.55;1.35;;;;;;;11.37;79.09;101673.41;5008606;28;20064;-88
2023/01/06 02:11:04;;;;;;;6.35;1.73;;;;;;;11.37;79.21;101668.13;5026867;28;20036;-88
2023/01/06 02:13:31;;;;;;;3.72;1.58;;;;;;;11.39;79.08;101668.09;5025999;28;20115;-88
2023/01/06 02:16:19;;;;;;;3.55;1.27;;;;;;;11.42;78.77;101653.00;5026516;28;20025;-88
2023/01/06 02:19:06;;;;;;;5.07;1.40;;;;;;;11.38;78.69;101658.44;5007288;28;20041;-88
2023/01/06 02:21:48;;;;;;;3.50;1.17;;;;;;;11.38;78.55;101658.44;5025098;28;20052;-88
2023/01/06 02:24:33;;;;;;;5.32;1.13;;;;;;;11.44;78.77;101666.19;5025700;28;20104;-88
2023/01/06 02:27:11;;;;;;;3.90;1.50;;;;;;;11.38;78.05;101655.78;5026974;28;20073;-89
2023/01/06 02:30:04;;;;;;;4.35;1.58;;;;;;;11.44;78.20;101667.03;5028889;28;20064;-88
2023/01/06 02:32:58;;;;;;;2.88;0.95;;;;;;;11.41;78.05;101658.31;5030721;28;20550;-88
2023/01/06 02:35:35;;;;;;;6.63;1.45;;;;;;;11.48;78.31;101657.22;5029542;28;20017;-89
2023/01/06 02:38:25;;;;;;;2.00;1.33;;;;;;;11.37;78.58;101654.03;5032098;28;20037;-88
2023/01/06 02:41:02;;;;;;;1.95;1.40;;;;;;;11.48;77.86;101638.69;5031763;28;20087;-88
2023/01/06 02:43:53;;;;;;;2.20;1.05;;;;;;;11.37;77.43;101631.06;5030650;28;20065;-89
2023/01/06 02:46:56;;;;;;;6.85;1.23;;;;;;;11.54;78.19;101624.38;5027789;28;20032;-89
2023/01/06 02:49:40;;;;;;;6.70;1.67;;;;;;;11.45;77.68;101630.84;5028811;28;20029;-88
2023/01/06 02:52:15;;;;;;;1.77;1.10;;;;;;;11.48;77.18;101622.81;5024690;28;20397;-89
2023/01/06 02:54:48;;;;;;;1.55;1.00;;;;;;;11.37;77.00;101601.94;5028006;28;20522;-88
2023/01/06 02:57:21;;;;;;;3.35;1.30;;;;;;;11.41;76.52;101608.88;5027527;28;20473;-88
2023/01/06 02:59:58;;;;;;;2.83;1.15;;;;;;;11.44;76.49;101605.28;5028103;28;20030;-88
2023/01/06 03:02:24;;;;;;;2.13;1.10;;;;;;;11.45;76.22;101601.72;5003987;28;20038;-88
2023/01/06 03:04:53;;;;;;;5.78;1.55;;;;;;;11.42;76.12;101607.09;5029162;28;20032;-89
2023/01/06 03:07:21;;;;;;;5.32;1.05;;;;;;;11.48;75.44;101604.28;5025947;28;20128;-88
2023/01/06 03:09:50;;;;;;;4.72;1.10;;;;;;;11.45;75.39;101599.06;5006836;28;20546;-88
2023/01/06 03:12:40;;;;;;;4.82;1.05;;;;;;;11.58;75.85;101611.00;5010804;28;20033;-88
2023/01/06 03:15:06;;;;;;;6.32;1.35;;;;;;;11.54;75.62;101601.41;5028064;28;20112;-89
2023/01/06 03:17:31;;;;;;;2.97;1.30;;;;;;;11.47;75.66;101597.22;5029522;28;20037;-88
2023/01/06 03:19:57;;;;;;;4.75;1.30;;;;;;;11.52;74.69;101594.44;5013850;28;20507;-88
2023/01/06 03:22:23;;;;;;;4.93;1.23;;;;;;;11.49;75.43;101592.75;5026076;28;20076;-88
2023/01/06 03:24:48;;;;;;;3.58;1.27;;;;;;;11.49;75.37;101587.47;5005324;28;20022;-88
2023/01/06 03:27:18;;;;;;;3.28;0.95;;;;;;;11.46;75.26;101598.13;5030112;28;20028;-89
2023/01/06 03:29:43;;;;;;;5.93;1.33;;;;;;;11.59;74.97;101606.56;5029404;28;20116;-88
2023/01/06 03:32:20;;;;;;;5.22;1.38;;;;;;;11.52;75.08;101594.44;5010436;28;20129;-89
2023/01/06 03:35:05;;;;;;;4.20;1.52;;;;;;;11.55;75.34;101600.50;5006949;28;20037;-89
2023/01/06 03:37:50;;;;;;;4.22;1.38;;;;;;;11.51;74.81;101588.25;5007657;28;20056;-88
2023/01/06 03:40:27;;;;;;;5.43;1.27;;;;;;;11.60;74.91;101595.06;5028099;28;20030;-89
2023/01/06 03:43:15;;;;;;;1.17;0.95;;;;;;;11.59;75.26;101588.03;5003395;28;20056;-88
2023/01/06 03:45:55;;;;;;;2.97;1.02;;;;;;;11.54;74.71;101567.00;5007476;28;20051;-88
2023/01/06 03:48:33;;;;;;;3.88;1.27;;;;;;;11.56;74.60;101575.75;5007473;28;20116;-89
2023/01/06 03:51:13;;;;;;;3.40;1.40;;;;;;;11.56;75.84;101581.03;5016780;28;20512;-89
2023/01/06 03:53:53;;;;;;;3.03;1.23;;;;;;;11.46;74.97;101580.47;5025286;28;20029;-88
2023/01/06 03:56:31;;;;;;;4.97;1.27;;;;;;;11.52;75.43;101583.84;5010912;28;20533;-89
2023/01/06 03:59:01;;;;;;;4.68;1.27;;;;;;;11.48;75.40;101575.16;5026099;28;20053;-88
2023/01/06 04:01:28;;;;;;;6.00;1.40;;;;;;;11.47;75.52;101562.78;5025062;28;20029;-88
2023/01/06 04:03:54;;;;;;;4.47;1.10;;;;;;;11.49;75.50;101571.56;5027921;28;20690;-88
2023/01/06 04:06:20;;;;;;;3.78;0.95;;;;;;;11.54;75.61;101571.44;5026672;28;20056;-88
2023/01/06 04:08:45;;;;;;;1.90;1.05;;;;;;;11.52;75.75;101563.53;5027710;28;20064;-89
2023/01/06 04:12:37;;;;;;;2.60;1.00;;;;;;;11.49;75.40;101563.63;5026120;28;20033;-88
2023/01/06 04:13:56;;;;;;;2.42;1.23;;;;;;;11.62;74.95;101564.09;5030239;28;20504;-88
2023/01/06 04:16:21;;;;;;;3.35;1.40;;;;;;;11.65;75.08;101553.38;5030307;28;20098;-88
2023/01/06 04:18:46;;;;;;;3.50;1.05;;;;;;;11.67;75.04;101544.50;5028538;28;20388;-88
2023/01/06 04:21:12;;;;;;;4.70;1.15;;;;;;;11.70;74.82;101557.63;5026179;28;20033;-89
2023/01/06 04:23:37;;;;;;;14.48;1.48;;;;;;;11.69;75.25;101534.69;5025537;28;20580;-89
2023/01/06 04:26:02;;;;;;;2.42;0.93;;;;;;;11.67;75.03;101525.09;5029576;28;20388;-88
2023/01/06 04:28:28;;;;;;;2.20;1.35;;;;;;;11.60;74.73;101535.00;5023759;28;20029;-88
2023/01/06 04:31:00;;;;;;;3.00;1.20;;;;;;;11.71;74.57;101535.53;5026055;28;20041;-88
2023/01/06 04:33:25;;;;;;;3.35;1.02;;;;;;;11.77;74.85;101523.84;5008435;28;20481;-88
2023/01/06 04:35:50;;;;;;;4.50;1.10;;;;;;;11.74;74.27;101522.16;5028135;28;20027;-88
2023/01/06 04:38:16;;;;;;;3.05;1.10;;;;;;;11.71;74.77;101505.53;5026938;28;20052;-88
2023/01/06 04:40:41;;;;;;;3.60;1.13;;;;;;;11.74;74.97;101510.69;5009384;28;20036;-88
2023/01/06 04:43:12;;;;;;;2.92;1.00;;;;;;;11.71;74.88;101497.56;5026573;28;20575;-89
2023/01/06 04:45:39;;;;;;;2.15;0.90;;;;;;;11.77;74.18;101500.00;5027917;28;20440;-88
2023/01/06 04:48:04;;;;;;;3.20;0.93;;;;;;;11.71;74.06;101498.44;5007058;28;20505;-88
2023/01/06 04:50:29;;;;;;;1.65;1.10;;;;;;;11.69;74.39;101492.31;5025360;28;20057;-88
2023/01/06 04:52:55;;;;;;;2.10;1.00;;;;;;;11.66;74.41;101495.09;5021067;28;20091;-88
2023/01/06 04:55:20;;;;;;;2.92;0.90;;;;;;;11.75;74.25;101500.06;5028256;28;22014;-89
2023/01/06 04:57:45;;;;;;;2.17;0.93;;;;;;;11.77;74.25;101501.78;5010161;28;20017;-89
2023/01/06 05:00:11;;;;;;;2.45;1.00;;;;;;;11.75;74.97;101488.63;5009812;28;20041;-89
2023/01/06 05:02:37;;;;;;;2.78;0.77;;;;;;;11.79;74.85;101502.59;5027198;28;20025;-88
2023/01/06 05:05:02;;;;;;;2.03;1.00;;;;;;;11.67;74.97;101496.81;5009400;28;20037;-89
2023/01/06 05:07:27;;;;;;;1.83;0.95;;;;;;;11.78;74.91;101492.91;5009086;28;20354;-88
2023/01/06 05:09:53;;;;;;;2.70;0.93;;;;;;;11.75;74.59;101486.81;5009120;28;20385;-88
2023/01/06 05:12:18;;;;;;;0.70;0.70;;;;;;;11.74;74.88;101484.22;5024168;28;20025;-89
2023/01/06 05:14:43;;;;;;;2.53;0.80;;;;;;;11.65;74.72;101474.78;5009079;28;20105;-89
2023/01/06 05:17:08;;;;;;;2.38;0.80;;;;;;;11.71;74.20;101474.59;5009161;28;20447;-88
2023/01/06 05:19:36;;;;;;;1.13;0.90;;;;;;;11.73;74.47;101472.75;5026363;28;20036;-88
2023/01/06 05:22:02;;;;;;;2.03;0.90;;;;;;;11.70;74.64;101471.97;5023807;28;20157;-88
2023/01/06 05:24:27;;;;;;;0.93;0.80;;;;;;;11.81;74.38;101477.78;5026546;28;20042;-88
2023/01/06 05:26:53;;;;;;;1.80;0.80;;;;;;;11.73;75.04;101485.13;5028418;28;20040;-88
2023/01/06 05:29:19;;;;;;;2.58;0.93;;;;;;;11.77;74.87;101484.13;5004979;28;20480;-88
2023/01/06 05:31:44;;;;;;;1.25;0.93;;;;;;;11.75;74.94;101480.66;5008359;28;20084;-89
2023/01/06 05:34:10;;;;;;;2.25;0.75;;;;;;;11.71;74.42;101487.84;5026468;28;20025;-89
2023/01/06 05:36:36;;;;;;;5.13;1.23;;;;;;;11.73;74.67;101482.47;5021758;28;20516;-89
2023/01/06 05:39:01;;;;;;;2.15;1.00;;;;;;;11.75;74.62;101489.47;5028223;28;20033;-88
2023/01/06 05:41:26;;;;;;;1.50;0.80;;;;;;;11.70;74.77;101486.13;5025251;28;20045;-89
2023/01/06 05:43:52;;;;;;;1.85;0.73;;;;;;;11.67;75.06;101483.56;5008432;28;20033;-89
2023/01/06 05:46:17;;;;;;;2.17;1.00;;;;;;;11.70;75.23;101494.06;5009278;28;20038;-88
2023/01/06 05:48:42;;;;;;;1.17;0.90;;;;;;;11.66;75.21;101479.19;5009011;28;20022;-89
2023/01/06 05:51:11;;;;;;;1.40;0.80;;;;;;;11.77;74.64;101493.84;5024424;28;20029;-88
2023/01/06 05:53:38;;;;;;;2.28;0.93;;;;;;;11.77;74.64;101489.41;5027452;28;20031;-89
2023/01/06 05:56:06;;;;;;;4.60;1.13;;;;;;;11.77;74.00;101477.94;5007850;28;20125;-88
2023/01/06 05:58:32;;;;;;;1.58;1.08;;;;;;;11.84;74.26;101488.28;5026186;28;20057;-88
2023/01/06 06:00:58;;;;;;;1.13;0.75;;;;;;;11.83;74.70;101491.00;5008404;28;20037;-88
2023/01/06 06:03:23;;;;;;;1.67;0.98;;;;;;;11.77;74.58;101484.13;5014188;28;20033;-88
2023/01/06 06:05:49;;;;;;;2.05;1.00;;;;;;;11.73;74.62;101480.69;5033892;28;20423;-88
2023/01/06 06:08:14;;;;;;;1.38;0.80;;;;;;;11.82;74.34;101491.91;5013810;28;20030;-88
2023/01/06 06:10:39;;;;;;;2.95;1.00;;;;;;;11.69;75.29;101499.41;5031454;28;20021;-88
2023/01/06 06:13:05;;;;;;;1.50;0.82;;;;;;;11.77;74.78;101480.59;5014255;28;20614;-88
2023/01/06 06:15:30;;;;;;;1.10;0.90;;;;;;;11.70;75.02;101494.06;5033201;28;20513;-88
2023/01/06 06:17:55;;;;;;;2.30;1.05;;;;;;;11.65;75.00;101487.19;5015359;28;20022;-89
2023/01/06 06:20:20;;;;;;;1.15;0.85;;;;;;;11.68;74.95;101480.00;5029382;28;20515;-88
2023/01/06 06:22:46;;;;;;;2.22;1.30;;;;;;;11.72;74.75;101500.16;5024927;28;20112;-89
2023/01/06 06:25:11;;;;;;;2.17;0.93;;;;;;;11.73;75.17;101498.38;5032024;28;20508;-88
2023/01/06 06:27:37;;;;;;;3.05;0.90;;;;;;;11.79;74.98;101510.53;5014536;28;20025;-88
2023/01/06 06:30:04;;;;;;;1.65;1.08;;;;;;;11.79;75.37;101500.81;5011879;28;20029;-88
2023/01/06 06:32:30;;;;;;;0.90;0.80;;;;;;;11.79;75.43;101487.56;5030384;28;20036;-88
2023/01/06 06:34:55;;;;;;;1.90;0.82;;;;;;;11.78;75.01;101490.28;5029161;28;20472;-88
2023/01/06 06:37:20;;;;;;;4.45;0.88;;;;;;;11.70;75.21;101475.53;5011433;28;20492;-88
2023/01/06 06:39:46;;;;;;;0.98;0.93;;;;;;;11.80;74.62;101483.13;5013501;28;20481;-88
2023/01/06 06:42:11;;;;;;;1.23;1.00;;;;;;;11.81;75.07;101490.19;5014783;28;20073;-88
2023/01/06 06:44:36;;;;;;;2.05;0.98;;;;;;;11.77;75.46;101483.25;5030810;28;20033;-88
2023/01/06 06:47:01;;;;;;;1.30;1.10;;;;;;;11.85;75.50;101492.69;5014241;28;20382;-88
2023/01/06 06:49:27;;;;;;;1.63;0.80;;;;;;;11.73;76.49;101482.47;5010607;28;20180;-89
2023/01/06 06:51:52;;;;;;;3.38;1.25;;;;;;;11.64;76.69;101493.41;5023737;28;20656;-88
2023/01/06 06:54:17;;;;;;;5.95;1.20;;;;;;;11.67;76.91;101486.22;5010569;28;20033;-88
2023/01/06 06:56:42;;;;;;;2.13;1.15;;;;;;;11.72;76.81;101484.28;5012934;28;20025;-88
2023/01/06 06:59:08;;;;;;;0.90;0.90;;;;;;;11.74;77.14;101487.72;5007063;28;20030;-88
2023/01/06 07:01:33;;;;;;;2.45;1.08;;;;;;;11.65;77.33;101484.53;5023878;28;20060;-88
2023/01/06 07:03:59;;;;;;;2.40;1.30;;;;;;;11.69;77.17;101491.44;5026665;28;20037;-88
2023/01/06 07:06:26;;;;;;;4.20;1.10;;;;;;;11.64;77.53;101504.84;5008244;28;20385;-89
2023/01/06 07:08:52;;;;;;;1.52;1.20;;;;;;;11.65;77.81;101495.97;5029611;28;20025;-88
2023/01/06 07:11:18;;;;;;;1.75;1.23;;;;;;;11.58;78.65;101510.38;5002201;28;20018;-88
2023/01/06 07:13:43;;;;;;;2.33;1.40;;;;;;;11.53;78.96;101511.44;5025918;28;20488;-88
2023/01/06 07:16:09;;;;;;;2.55;1.55;;;;;;;11.48;79.64;101515.09;5023007;28;20063;-88
2023/01/06 07:18:34;;;;;;;2.10;1.60;;;;;;;11.44;80.30;101510.81;5029343;28;20428;-88
2023/01/06 07:20:59;;;;;;;2.05;1.20;;;;;;;11.31;82.12;101516.56;5010323;28;20449;-88
2023/01/06 07:23:25;;;;;;;3.00;1.40;;;;;;;11.22;82.43;101510.66;5010820;28;20119;-88
2023/01/06 07:25:55;;;;;;;2.42;1.60;;;;;;;11.18;83.19;101516.09;5013245;28;20060;-87
2023/01/06 07:28:21;;;;;;;1.95;1.73;;;;;;;10.98;82.82;101500.84;5025852;28;20033;-89
2023/01/06 07:30:46;;;;;;;1.63;1.52;;;;;;;11.13;82.64;101503.00;5008861;28;20049;-88
2023/01/06 07:33:12;;;;;;;2.45;1.60;;;;;;;11.08;82.86;101509.34;5009369;28;20030;-88
2023/01/06 07:35:37;;;;;;;2.13;1.50;;;;;;;11.05;82.83;101507.69;5029090;28;20021;-87
2023/01/06 07:38:04;;;;;;;5.47;1.80;;;;;;;11.09;83.37;101532.25;5029374;28;20546;-88
2023/01/06 07:40:29;;;;;;;4.05;1.63;;;;;;;11.04;83.99;101531.53;5030499;28;20458;-88
2023/01/06 07:42:54;;;;;;;2.45;2.15;;;;;;;10.96;84.03;101516.78;5025464;28;20164;-88
2023/01/06 07:45:20;;;;;;;3.42;1.88;;;;;;;11.02;84.17;101538.66;5026278;28;20104;-88
2023/01/06 07:47:45;;;;;;;2.00;1.80;;;;;;;11.02;83.83;101531.59;5026155;28;20033;-87
2023/01/06 07:50:10;;;;;;;2.63;1.70;;;;;;;10.97;83.92;101520.28;5029439;28;20515;-88
2023/01/06 07:52:35;;;;;;;4.82;2.35;;;;;;;11.06;83.47;101521.78;5009953;28;20087;-88
2023/01/06 07:55:01;;;;;;;2.47;1.70;;;;;;;11.06;83.50;101527.06;5001401;28;20033;-88
2023/01/06 07:57:28;;;;;;;2.47;1.77;;;;;;;11.03;83.87;101533.31;5024358;28;20029;-88
2023/01/06 07:59:53;;;;;;;2.55;1.58;;;;;;;11.08;83.12;101534.03;5029974;28;20041;-87
2023/01/06 08:02:19;;;;;;;2.13;1.50;;;;;;;11.06;83.13;101541.16;5026579;28;20079;-88
2023/01/06 08:04:44;;;;;;;2.00;1.55;;;;;;;11.13;83.04;101545.34;5029525;28;20092;-88
2023/01/06 08:07:09;;;;;;;2.35;1.35;;;;;;;11.20;82.65;101548.69;5030075;28;20049;-88
2023/01/06 08:09:34;;;;;;;2.45;1.48;;;;;;;11.24;82.60;101553.84;5009560;28;20208;-88
2023/01/06 08:12:00;;;;;;;3.00;1.70;;;;;;;11.21;82.26;101559.22;5029868;28;20113;-88
2023/01/06 08:14:25;;;;;;;5.10;1.73;;;;;;;11.23;82.38;101567.94;5011066;28;20479;-88
2023/01/06 08:16:50;;;;;;;2.40;1.70;;;;;;;11.25;82.73;101570.56;5021488;28;20050;-88
2023/01/06 08:19:16;;;;;;;3.78;1.90;;;;;;;11.36;82.20;101572.88;5030124;28;20056;-88
2023/01/06 08:21:41;;;;;;;2.80;1.63;;;;;;;11.28;82.36;101574.88;5028410;28;20053;-88
2023/01/06 08:24:07;;;;;;;2.40;1.58;;;;;;;11.40;82.15;101580.66;5010738;28;20041;-88
2023/01/06 08:26:32;;;;;;;2.83;1.50;;;;;;;11.42;82.07;101581.50;5007316;28;20025;-88
2023/01/06 08:28:57;;;;;;;2.10;1.92;;;;;;;11.46;82.14;101584.91;5009131;28;20274;-88
2023/01/06 08:31:23;;;;;;;2.83;1.85;;;;;;;11.39;82.41;101559.56;5027472;28;20449;-88
2023/01/06 08:33:50;;;;;;;4.05;2.00;;;;;;;11.50;81.98;101574.16;5016165;28;20025;-88
2023/01/06 08:36:18;;;;;;;3.40;2.15;;;;;;;11.53;82.43;101580.28;5003799;28;20032;-88
2023/01/06 08:38:43;;;;;;;2.33;2.08;;;;;;;11.57;82.22;101581.94;5026699;28;20044;-88
2023/01/06 08:41:09;;;;;;;2.75;2.30;;;;;;;11.56;82.00;101590.75;5028681;28;20033;-88
2023/01/06 08:43:35;;;;;;;2.28;2.03;;;;;;;11.62;82.41;101611.78;5008497;28;20052;-88
2023/01/06 08:46:02;;;;;;;2.50;2.30;;;;;;;11.62;82.03;101606.47;5027033;28;20029;-88
2023/01/06 08:48:28;;;;;;;2.65;2.45;;;;;;;11.62;81.91;101612.66;5026293;28;20030;-88
2023/01/06 08:50:54;;;;;;;2.40;2.20;;;;;;;11.59;81.85;101606.56;5028187;28;20033;-88
2023/01/06 08:53:19;;;;;;;3.50;2.65;;;;;;;11.65;81.96;101615.16;5024190;28;20021;-88
2023/01/06 08:55:45;;;;;;;2.80;2.60;;;;;;;11.68;81.61;101628.31;5007626;28;20469;-88
2023/01/06 08:58:10;;;;;;;3.13;2.47;;;;;;;11.63;81.64;101624.09;5027162;28;20380;-88
2023/01/06 09:00:40;;;;;;;4.80;2.80;;;;;;;11.60;81.89;101622.41;5022209;28;20081;-88
2023/01/06 09:03:06;;;;;;;3.00;2.75;;;;;;;11.79;81.47;101616.50;5027110;28;20037;-88
2023/01/06 09:05:31;;;;;;;3.88;2.78;;;;;;;11.91;80.83;101640.00;5027055;28;20036;-89
2023/01/06 09:07:57;;;;;;;3.85;3.40;;;;;;;11.79;80.70;101630.63;5026062;28;20029;-88
2023/01/06 09:10:22;;;;;;;4.93;3.60;;;;;;;11.86;80.55;101649.88;5028791;28;20516;-89
2023/01/06 09:12:48;;;;;;;4.10;3.15;;;;;;;11.88;80.13;101637.44;5027211;28;20037;-89
2023/01/06 09:15:13;;;;;;;4.53;3.45;;;;;;;11.95;80.28;101639.84;5027205;28;20045;-88
2023/01/06 09:17:38;;;;;;;3.63;3.33;;;;;;;11.96;80.36;101640.72;5026711;28;20184;-88
2023/01/06 09:20:04;;;;;;;3.92;3.53;;;;;;;11.88;80.32;101640.09;5025669;28;20033;-88
2023/01/06 09:22:30;;;;;;;6.63;3.85;;;;;;;11.87;80.37;101643.66;5027650;28;20493;-89
2023/01/06 09:24:55;;;;;;;4.22;3.40;;;;;;;11.89;80.32;101653.31;5013882;28;20080;-88
2023/01/06 09:27:21;;;;;;;5.05;3.90;;;;;;;11.90;80.11;101644.44;5024087;28;20032;-88
2023/01/06 09:29:46;;;;;;;4.97;4.13;;;;;;;12.06;79.23;101654.53;5024424;28;20025;-88
2023/01/06 09:32:11;;;;;;;4.75;4.18;;;;;;;12.03;78.74;101652.84;5026623;28;20025;-89
2023/01/06 09:34:37;;;;;;;5.65;4.78;;;;;;;12.08;78.88;101673.91;5011748;28;20493;-88
2023/01/06 09:37:02;;;;;;;5.72;4.63;;;;;;;12.04;79.38;101667.84;5004051;28;20026;-88
2023/01/06 09:39:27;;;;;;;6.25;4.55;;;;;;;12.11;78.91;101684.38;5035630;28;20493;-88
2023/01/06 09:42:21;;;;;;;6.25;4.38;;;;;;;12.04;78.83;101678.44;5008340;28;20054;-88
2023/01/06 09:44:55;;;;;;;4.68;3.97;;;;;;;12.69;77.62;101683.28;5028671;28;20481;-89
2023/01/06 09:47:25;;;;;;;4.60;4.20;;;;;;;12.94;76.07;101698.31;5028574;28;20033;-88
2023/01/06 09:49:57;;;;;;;4.90;4.20;;;;;;;12.77;76.41;101689.16;5026996;28;20498;-88
2023/01/06 09:52:36;;;;;;;5.95;4.00;;;;;;;13.26;75.07;101698.03;5026579;28;20132;-89
2023/01/06 09:55:10;;;;;;;6.25;4.07;;;;;;;14.43;71.24;101686.22;5028687;28;20086;-89
2023/01/06 09:57:42;;;;;;;6.32;4.38;;;;;;;14.43;70.75;101696.00;4994424;28;20021;-89
2023/01/06 10:00:34;;;;;;;4.18;3.78;;;;;;;14.69;71.52;101713.56;5006511;28;20076;-89
2023/01/06 10:02:59;;;;;;;3.88;3.28;;;;;;;14.63;68.73;101708.50;5012159;28;20052;-89
2023/01/06 10:05:44;;;;;;;3.95;3.50;;;;;;;14.42;70.43;101700.47;5006299;28;20021;-89
2023/01/06 10:08:41;;;;;;;4.03;3.67;;;;;;;14.05;70.90;101711.78;5005990;28;20030;-89
2023/01/06 10:11:12;;;;;;;9.60;4.65;;;;;;;13.78;71.71;101711.94;4971817;28;20169;-89
2023/01/06 10:13:50;;;;;;;8.10;3.95;;;;;;;13.58;72.41;101703.03;5024571;28;20029;-89
2023/01/06 10:16:33;;;;;;;6.10;4.38;;;;;;;14.22;70.93;101703.09;5002370;28;20036;-89
2023/01/06 10:19:16;;;;;;;4.40;4.00;;;;;;;14.94;68.07;101697.38;5022163;28;20049;-89
2023/01/06 10:21:41;;;;;;;;;;;;;;;15.32;69.23;101715.13;5017056;28;20164;-89
2023/01/06 10:24:15;;;;;;;4.47;3.50;;;;;;;15.09;67.24;101707.31;5026959;28;20366;-89
2023/01/06 10:26:49;;;;;;;4.00;3.25;;;;;;;14.56;67.57;101699.06;5020013;28;20108;-90
2023/01/06 10:29:19;;;;;;;4.53;3.75;;;;;;;14.23;68.31;101710.16;5006106;28;20041;-89
2023/01/06 10:31:47;;;;;;;5.70;4.68;;;;;;;13.93;69.44;101707.81;5008707;28;20033;-90
2023/01/06 10:34:23;;;;;;;4.13;3.70;;;;;;;14.03;70.07;101708.28;5006781;28;20088;-89
2023/01/06 10:37:16;;;;;;;6.20;3.85;;;;;;;14.20;70.33;101708.47;5009339;28;20017;-89
2023/01/06 10:39:44;;;;;;;6.38;3.40;;;;;;;14.34;68.66;101691.06;5015523;28;20136;-89
2023/01/06 10:42:56;;;;;;;4.10;3.13;;;;;;;15.25;67.72;101697.72;5010875;28;20050;-89
2023/01/06 10:45:37;;;;;;;5.10;2.80;;;;;;;16.67;60.75;101705.03;5008475;28;20038;-89
2023/01/06 10:48:05;;;;;;;6.60;2.70;;;;;;;17.10;59.21;101701.00;5028115;28;20033;-89
2023/01/06 10:50:33;;;;;;;4.47;2.20;;;;;;;17.71;55.96;101686.06;5009738;28;20032;-88
2023/01/06 10:52:58;;;;;;;4.78;2.40;;;;;;;17.26;56.88;101691.22;5029048;28;20420;-89
2023/01/06 10:55:46;;;;;;;3.17;2.00;;;;;;;17.45;58.88;101703.56;5025340;28;20410;-89
2023/01/06 10:58:52;;;;;;;4.65;2.40;;;;;;;17.21;60.41;101703.09;5023019;28;20029;-89
2023/01/06 11:01:26;;;;;;;5.57;2.85;;;;;;;17.23;59.24;101696.72;5026752;28;20025;-89
2023/01/06 11:04:10;;;;;;;5.65;3.40;;;;;;;18.71;56.98;101695.41;5030498;28;20087;-89
2023/01/06 11:06:41;;;;;;;5.00;3.25;;;;;;;19.95;52.15;101684.88;5012506;28;20030;-89
2023/01/06 11:09:23;;;;;;;5.45;3.42;;;;;;;19.37;53.01;101702.88;5026274;28;20152;-89
2023/01/06 11:11:51;;;;;;;4.10;3.70;;;;;;;17.33;56.44;101697.94;5006570;28;20021;-89
2023/01/06 11:14:18;;;;;;;6.43;4.20;;;;;;;16.35;60.24;101709.34;5030082;28;20033;-89
2023/01/06 11:16:53;;;;;;;8.32;4.35;;;;;;;15.59;62.60;101712.13;5024834;28;20453;-89
2023/01/06 11:19:23;;;;;;;6.63;4.43;;;;;;;15.07;64.11;101705.69;5005459;28;20040;-88
2023/01/06 11:21:49;;;;;;;5.43;4.85;;;;;;;14.66;64.28;101698.59;5030786;28;20034;-89
2023/01/06 11:24:23;;;;;;;10.13;6.38;;;;;;;14.38;65.44;101698.00;5027379;28;20018;-89
2023/01/06 11:27:00;;;;;;;7.53;5.82;;;;;;;14.29;65.87;101696.59;5024102;28;20095;-89
2023/01/06 11:29:34;;;;;;;8.50;5.32;;;;;;;14.16;65.89;101698.88;5029146;28;20037;-89
2023/01/06 11:32:05;;;;;;;7.20;5.82;;;;;;;14.08;65.67;101701.00;5028071;28;20564;-89
2023/01/06 11:34:30;;;;;;;8.07;6.45;;;;;;;14.07;67.76;101703.72;5013794;28;20036;-89
2023/01/06 11:36:57;;;;;;;11.35;6.85;;;;;;;13.90;66.22;101688.47;5006421;28;20030;-89